Messwerte Ohakea

Temperatur

Temperatur
°C
1606568400 2.00 2.00 13
1606572000 3.00 3.00 12
1606575600 4.00 4.00 13
1606579200 5.00 5.00 12
1606582800 6.00 6.00 12
1606586400 7.00 7.00 12
1606590000 8.00 8.00 12
1606593600 9.00 9.00 12
1606597200 10.00 10.00 14
1606600800 11.00 11.00
1606604400 12.00 12.00 14
1606608000 13.00 13.00 16
1606611600 14.00 14.00 15
1606615200 15.00 15.00 16
1606618800 16.00 16.00 18
1606622400 17.00 17.00 18
1606626000 18.00 18.00 18
1606629600 19.00 19.00 17
1606633200 20.00 20.00 16
1606636800 21.00 21.00 15
1606640400 22.00 22.00 14
1606644000 23.00 23.00
1606647600 0.00 0.00
1606651200 1.00 1.00 11

Aktuellste Messwerte

Wettercharakter
Wetter: bedeckt
Temperatur
12 °C
Feuchtigkeit
94 %
Wind
5 km/hWindrichtung: Nord
Luftdruck
1004 hPa
Messzeit: 30. November 2020, 3.00Datenquelle: METAR

Weitere Messstationen in der Nähe

Messstation Temperatur Entfernung
Palmerston 12 °C 25 km
Paraparaumu 13 °C 84 km
Wellington 13 °C 134 km
New Plymouth 11 °C 166 km
Nelson 15 °C 218 km
Rotorua 10 °C 245 km
Gisborne 15 °C 281 km

Wind

Windrichtung Böen Mittelwind
° km/h km/h
1606568400 2.00 1.00 - 2.00 310° 20
1606572000 3.00 2.00 - 3.00 320° 15
1606575600 4.00 3.00 - 4.00 320° 15
1606579200 5.00 4.00 - 5.00 360° 10
1606582800 6.00 5.00 - 6.00 40° 5
1606586400 7.00 6.00 - 7.00 330° 10
1606590000 8.00 7.00 - 8.00 350° 20
1606593600 9.00 8.00 - 9.00 350° 25
1606597200 10.00 9.00 - 10.00 350° 25
1606600800 11.00 10.00 - 11.00
1606604400 12.00 11.00 - 12.00 340° 30
1606608000 13.00 12.00 - 13.00 290° 40
1606611600 14.00 13.00 - 14.00 300° 30
1606615200 15.00 14.00 - 15.00 280° 20
1606618800 16.00 15.00 - 16.00 280° 10
1606622400 17.00 16.00 - 17.00 270° 20
1606626000 18.00 17.00 - 18.00 300° 15
1606629600 19.00 18.00 - 19.00 310° 20
1606633200 20.00 19.00 - 20.00 310° 15
1606636800 21.00 20.00 - 21.00 310° 10
1606640400 22.00 21.00 - 22.00 320° 10
1606644000 23.00 22.00 - 23.00
1606647600 0.00 23.00 - 0.00
1606651200 1.00 0.00 - 1.00 30° 5

Ihre Wetterstation

Fehlt Ihre Wetterstation auf unserem Portal?

Schreiben Sie an network@meteonews.ch

Klima

Wann ist es am wärmsten? Wann regnet es am wenigsten? Unsere Klimadaten geben Auskunft.